sensor_id;sensor_type;location;lat;lon;timestamp;P1;durP1;ratioP1;P2;durP2;ratioP2
43098;SDS011;28715;51.988;6.020;2022-10-15T00:00:25;125.30;;;39.97;;
43098;SDS011;28715;51.988;6.020;2022-10-15T00:02:50;149.03;;;43.00;;
43098;SDS011;28715;51.988;6.020;2022-10-15T00:05:16;186.93;;;44.53;;
43098;SDS011;28715;51.988;6.020;2022-10-15T00:07:42;270.03;;;49.00;;
43098;SDS011;28715;51.988;6.020;2022-10-15T00:10:08;253.13;;;48.73;;
43098;SDS011;28715;51.988;6.020;2022-10-15T00:12:33;221.97;;;46.43;;
43098;SDS011;28715;51.988;6.020;2022-10-15T00:14:59;358.73;;;53.30;;
43098;SDS011;28715;51.988;6.020;2022-10-15T00:17:24;291.50;;;50.57;;
43098;SDS011;28715;51.988;6.020;2022-10-15T00:19:50;471.10;;;59.90;;
43098;SDS011;28715;51.988;6.020;2022-10-15T00:22:15;327.17;;;50.60;;
43098;SDS011;28715;51.988;6.020;2022-10-15T00:24:41;320.37;;;54.60;;
43098;SDS011;28715;51.988;6.020;2022-10-15T00:27:06;367.47;;;55.10;;
43098;SDS011;28715;51.988;6.020;2022-10-15T00:29:32;347.70;;;55.30;;
43098;SDS011;28715;51.988;6.020;2022-10-15T00:31:58;336.60;;;53.90;;
43098;SDS011;28715;51.988;6.020;2022-10-15T00:34:24;355.98;;;58.00;;
43098;SDS011;28715;51.988;6.020;2022-10-15T00:36:49;355.13;;;56.87;;
43098;SDS011;28715;51.988;6.020;2022-10-15T00:39:15;227.47;;;52.03;;
43098;SDS011;28715;51.988;6.020;2022-10-15T00:41:41;172.73;;;46.00;;
43098;SDS011;28715;51.988;6.020;2022-10-15T00:49:42;214.20;;;49.88;;
43098;SDS011;28715;51.988;6.020;2022-10-15T00:52:15;242.32;;;49.80;;
43098;SDS011;28715;51.988;6.020;2022-10-15T00:54:44;228.82;;;52.83;;
43098;SDS011;28715;51.988;6.020;2022-10-15T00:57:13;233.40;;;51.72;;
43098;SDS011;28715;51.988;6.020;2022-10-15T00:59:43;187.60;;;45.33;;
43098;SDS011;28715;51.988;6.020;2022-10-15T01:02:14;210.82;;;47.65;;
43098;SDS011;28715;51.988;6.020;2022-10-15T01:04:42;107.43;;;37.58;;
43098;SDS011;28715;51.988;6.020;2022-10-15T01:07:08;176.37;;;47.90;;
43098;SDS011;28715;51.988;6.020;2022-10-15T01:09:33;162.37;;;43.67;;
43098;SDS011;28715;51.988;6.020;2022-10-15T01:11:59;138.33;;;42.70;;
43098;SDS011;28715;51.988;6.020;2022-10-15T01:17:15;133.68;;;43.03;;
43098;SDS011;28715;51.988;6.020;2022-10-15T01:22:28;78.90;;;37.83;;
43098;SDS011;28715;51.988;6.020;2022-10-15T01:31:21;170.70;;;43.83;;
43098;SDS011;28715;51.988;6.020;2022-10-15T01:39:13;118.83;;;37.67;;
43098;SDS011;28715;51.988;6.020;2022-10-15T01:41:48;81.28;;;33.75;;
43098;SDS011;28715;51.988;6.020;2022-10-15T01:44:21;115.55;;;37.15;;
43098;SDS011;28715;51.988;6.020;2022-10-15T01:47:13;147.93;;;37.63;;
43098;SDS011;28715;51.988;6.020;2022-10-15T01:49:47;142.90;;;40.70;;
43098;SDS011;28715;51.988;6.020;2022-10-15T01:52:18;226.75;;;48.17;;
43098;SDS011;28715;51.988;6.020;2022-10-15T01:54:47;147.70;;;43.30;;
43098;SDS011;28715;51.988;6.020;2022-10-15T01:57:14;277.05;;;56.47;;
43098;SDS011;28715;51.988;6.020;2022-10-15T01:59:41;183.48;;;47.80;;
43098;SDS011;28715;51.988;6.020;2022-10-15T02:02:11;168.23;;;46.60;;
43098;SDS011;28715;51.988;6.020;2022-10-15T02:04:43;211.45;;;52.90;;
43098;SDS011;28715;51.988;6.020;2022-10-15T02:07:13;122.18;;;45.72;;
43098;SDS011;28715;51.988;6.020;2022-10-15T02:10:00;124.43;;;44.67;;
43098;SDS011;28715;51.988;6.020;2022-10-15T02:12:47;95.80;;;41.33;;
43098;SDS011;28715;51.988;6.020;2022-10-15T02:20:49;120.88;;;42.35;;
43098;SDS011;28715;51.988;6.020;2022-10-15T02:23:35;131.38;;;43.38;;
43098;SDS011;28715;51.988;6.020;2022-10-15T02:26:09;241.20;;;51.72;;
43098;SDS011;28715;51.988;6.020;2022-10-15T02:28:37;166.82;;;49.33;;
43098;SDS011;28715;51.988;6.020;2022-10-15T02:31:07;85.53;;;37.78;;
43098;SDS011;28715;51.988;6.020;2022-10-15T02:33:36;125.63;;;42.88;;
43098;SDS011;28715;51.988;6.020;2022-10-15T02:36:05;96.35;;;41.70;;
43098;SDS011;28715;51.988;6.020;2022-10-15T02:38:34;96.78;;;41.35;;
43098;SDS011;28715;51.988;6.020;2022-10-15T02:41:05;137.60;;;45.80;;
43098;SDS011;28715;51.988;6.020;2022-10-15T02:43:34;125.60;;;43.78;;
43098;SDS011;28715;51.988;6.020;2022-10-15T02:46:04;160.07;;;45.75;;
43098;SDS011;28715;51.988;6.020;2022-10-15T02:48:36;104.45;;;42.58;;
43098;SDS011;28715;51.988;6.020;2022-10-15T02:51:02;120.85;;;45.05;;
43098;SDS011;28715;51.988;6.020;2022-10-15T02:53:28;89.72;;;39.13;;
43098;SDS011;28715;51.988;6.020;2022-10-15T02:55:54;124.73;;;41.90;;
43098;SDS011;28715;51.988;6.020;2022-10-15T02:58:20;105.70;;;41.23;;
43098;SDS011;28715;51.988;6.020;2022-10-15T03:00:45;97.97;;;39.20;;
43098;SDS011;28715;51.988;6.020;2022-10-15T03:03:11;90.20;;;38.83;;
43098;SDS011;28715;51.988;6.020;2022-10-15T03:05:37;96.10;;;39.40;;
43098;SDS011;28715;51.988;6.020;2022-10-15T03:08:02;116.57;;;40.47;;
43098;SDS011;28715;51.988;6.020;2022-10-15T03:10:28;114.03;;;41.77;;
43098;SDS011;28715;51.988;6.020;2022-10-15T03:12:54;91.70;;;39.57;;
43098;SDS011;28715;51.988;6.020;2022-10-15T03:15:19;214.60;;;48.77;;
43098;SDS011;28715;51.988;6.020;2022-10-15T03:17:45;83.60;;;36.50;;
43098;SDS011;28715;51.988;6.020;2022-10-15T03:20:13;123.50;;;42.80;;
43098;SDS011;28715;51.988;6.020;2022-10-15T03:22:46;111.60;;;42.00;;
43098;SDS011;28715;51.988;6.020;2022-10-15T03:25:11;85.65;;;38.22;;
43098;SDS011;28715;51.988;6.020;2022-10-15T03:27:37;65.63;;;34.67;;
43098;SDS011;28715;51.988;6.020;2022-10-15T03:30:03;141.10;;;44.63;;
43098;SDS011;28715;51.988;6.020;2022-10-15T03:32:29;130.02;;;40.42;;
43098;SDS011;28715;51.988;6.020;2022-10-15T03:34:58;314.87;;;54.80;;
43098;SDS011;28715;51.988;6.020;2022-10-15T03:37:24;250.75;;;48.67;;
43098;SDS011;28715;51.988;6.020;2022-10-15T03:39:55;154.82;;;43.15;;
43098;SDS011;28715;51.988;6.020;2022-10-15T03:42:20;136.10;;;41.05;;
43098;SDS011;28715;51.988;6.020;2022-10-15T03:44:49;143.77;;;39.73;;
43098;SDS011;28715;51.988;6.020;2022-10-15T03:47:14;451.23;;;62.60;;
43098;SDS011;28715;51.988;6.020;2022-10-15T03:49:40;336.47;;;48.73;;
43098;SDS011;28715;51.988;6.020;2022-10-15T03:52:05;302.20;;;51.77;;
43098;SDS011;28715;51.988;6.020;2022-10-15T03:54:41;145.85;;;37.47;;
43098;SDS011;28715;51.988;6.020;2022-10-15T03:57:12;118.88;;;38.47;;
43098;SDS011;28715;51.988;6.020;2022-10-15T03:59:46;288.65;;;51.45;;
43098;SDS011;28715;51.988;6.020;2022-10-15T04:02:14;85.53;;;37.42;;
43098;SDS011;28715;51.988;6.020;2022-10-15T04:04:40;89.93;;;38.13;;
43098;SDS011;28715;51.988;6.020;2022-10-15T04:07:05;85.70;;;38.87;;
43098;SDS011;28715;51.988;6.020;2022-10-15T04:09:34;84.20;;;37.00;;
43098;SDS011;28715;51.988;6.020;2022-10-15T04:12:00;118.40;;;38.95;;
43098;SDS011;28715;51.988;6.020;2022-10-15T04:14:30;113.75;;;42.20;;
43098;SDS011;28715;51.988;6.020;2022-10-15T04:16:56;108.22;;;42.92;;
43098;SDS011;28715;51.988;6.020;2022-10-15T04:19:26;121.78;;;45.35;;
43098;SDS011;28715;51.988;6.020;2022-10-15T04:21:54;109.60;;;43.97;;
43098;SDS011;28715;51.988;6.020;2022-10-15T04:24:26;123.35;;;45.80;;
43098;SDS011;28715;51.988;6.020;2022-10-15T04:26:57;144.05;;;48.38;;
43098;SDS011;28715;51.988;6.020;2022-10-15T04:29:22;118.10;;;44.93;;
43098;SDS011;28715;51.988;6.020;2022-10-15T04:31:50;123.13;;;46.03;;
43098;SDS011;28715;51.988;6.020;2022-10-15T04:34:22;97.95;;;41.28;;
43098;SDS011;28715;51.988;6.020;2022-10-15T04:36:47;110.57;;;43.95;;
43098;SDS011;28715;51.988;6.020;2022-10-15T04:39:13;128.03;;;46.17;;
43098;SDS011;28715;51.988;6.020;2022-10-15T04:41:39;158.75;;;51.85;;
43098;SDS011;28715;51.988;6.020;2022-10-15T04:44:07;217.18;;;62.25;;
43098;SDS011;28715;51.988;6.020;2022-10-15T04:46:35;112.63;;;46.85;;
43098;SDS011;28715;51.988;6.020;2022-10-15T04:49:09;122.80;;;45.88;;
43098;SDS011;28715;51.988;6.020;2022-10-15T04:51:43;170.45;;;50.13;;
43098;SDS011;28715;51.988;6.020;2022-10-15T04:54:09;136.65;;;50.28;;
43098;SDS011;28715;51.988;6.020;2022-10-15T04:56:35;166.20;;;50.17;;
43098;SDS011;28715;51.988;6.020;2022-10-15T04:59:05;127.85;;;43.53;;
43098;SDS011;28715;51.988;6.020;2022-10-15T05:01:35;309.20;;;56.17;;
43098;SDS011;28715;51.988;6.020;2022-10-15T05:04:06;233.88;;;50.65;;
43098;SDS011;28715;51.988;6.020;2022-10-15T05:06:44;119.05;;;43.88;;
43098;SDS011;28715;51.988;6.020;2022-10-15T05:09:12;232.57;;;56.75;;
43098;SDS011;28715;51.988;6.020;2022-10-15T05:12:00;159.55;;;51.78;;
43098;SDS011;28715;51.988;6.020;2022-10-15T05:14:31;166.75;;;54.30;;
43098;SDS011;28715;51.988;6.020;2022-10-15T05:16:59;160.93;;;53.15;;
43098;SDS011;28715;51.988;6.020;2022-10-15T05:19:27;177.15;;;56.30;;
43098;SDS011;28715;51.988;6.020;2022-10-15T05:21:55;188.70;;;58.33;;
43098;SDS011;28715;51.988;6.020;2022-10-15T05:24:32;110.25;;;46.92;;
43098;SDS011;28715;51.988;6.020;2022-10-15T05:27:00;152.20;;;55.55;;
43098;SDS011;28715;51.988;6.020;2022-10-15T05:29:26;163.67;;;57.33;;
43098;SDS011;28715;51.988;6.020;2022-10-15T05:31:56;194.43;;;60.28;;
43098;SDS011;28715;51.988;6.020;2022-10-15T05:34:24;292.67;;;70.03;;
43098;SDS011;28715;51.988;6.020;2022-10-15T05:36:54;169.88;;;58.40;;
43098;SDS011;28715;51.988;6.020;2022-10-15T05:39:28;238.80;;;67.78;;
43098;SDS011;28715;51.988;6.020;2022-10-15T05:42:01;184.45;;;60.15;;
43098;SDS011;28715;51.988;6.020;2022-10-15T05:44:29;254.40;;;67.30;;
43098;SDS011;28715;51.988;6.020;2022-10-15T05:47:03;299.35;;;73.18;;
43098;SDS011;28715;51.988;6.020;2022-10-15T05:49:28;206.23;;;64.30;;
43098;SDS011;28715;51.988;6.020;2022-10-15T05:51:56;156.73;;;58.78;;
43098;SDS011;28715;51.988;6.020;2022-10-15T05:54:32;162.50;;;60.28;;
43098;SDS011;28715;51.988;6.020;2022-10-15T05:57:06;242.27;;;69.88;;
43098;SDS011;28715;51.988;6.020;2022-10-15T06:02:21;172.82;;;60.83;;
43098;SDS011;28715;51.988;6.020;2022-10-15T06:04:52;216.05;;;62.55;;
43098;SDS011;28715;51.988;6.020;2022-10-15T06:07:27;130.48;;;55.13;;
43098;SDS011;28715;51.988;6.020;2022-10-15T06:10:13;190.25;;;65.85;;
43098;SDS011;28715;51.988;6.020;2022-10-15T06:13:02;181.48;;;67.18;;
43098;SDS011;28715;51.988;6.020;2022-10-15T06:15:28;147.70;;;62.05;;
43098;SDS011;28715;51.988;6.020;2022-10-15T06:18:01;226.35;;;73.07;;
43098;SDS011;28715;51.988;6.020;2022-10-15T06:20:36;185.70;;;69.07;;
43098;SDS011;28715;51.988;6.020;2022-10-15T06:23:12;203.38;;;72.78;;
43098;SDS011;28715;51.988;6.020;2022-10-15T06:25:48;167.43;;;63.55;;
43098;SDS011;28715;51.988;6.020;2022-10-15T06:28:20;203.02;;;68.43;;
43098;SDS011;28715;51.988;6.020;2022-10-15T06:34:17;153.70;;;58.55;;
43098;SDS011;28715;51.988;6.020;2022-10-15T06:37:11;149.00;;;57.35;;
43098;SDS011;28715;51.988;6.020;2022-10-15T06:39:45;120.97;;;54.30;;
43098;SDS011;28715;51.988;6.020;2022-10-15T06:45:34;120.90;;;49.47;;
43098;SDS011;28715;51.988;6.020;2022-10-15T06:48:30;114.95;;;48.55;;
43098;SDS011;28715;51.988;6.020;2022-10-15T06:51:21;115.60;;;50.75;;
43098;SDS011;28715;51.988;6.020;2022-10-15T06:56:43;109.32;;;50.22;;
43098;SDS011;28715;51.988;6.020;2022-10-15T06:59:09;107.80;;;48.55;;
43098;SDS011;28715;51.988;6.020;2022-10-15T07:01:43;127.28;;;51.10;;
43098;SDS011;28715;51.988;6.020;2022-10-15T07:04:09;104.93;;;46.97;;
43098;SDS011;28715;51.988;6.020;2022-10-15T07:06:34;120.43;;;49.53;;
43098;SDS011;28715;51.988;6.020;2022-10-15T07:09:00;104.87;;;46.53;;
43098;SDS011;28715;51.988;6.020;2022-10-15T07:11:26;104.70;;;45.17;;
43098;SDS011;28715;51.988;6.020;2022-10-15T07:13:52;85.83;;;41.97;;
43098;SDS011;28715;51.988;6.020;2022-10-15T07:16:18;95.80;;;45.55;;
43098;SDS011;28715;51.988;6.020;2022-10-15T07:18:46;103.07;;;45.50;;
43098;SDS011;28715;51.988;6.020;2022-10-15T07:21:12;97.35;;;44.75;;
43098;SDS011;28715;51.988;6.020;2022-10-15T07:23:37;93.57;;;43.07;;
43098;SDS011;28715;51.988;6.020;2022-10-15T07:26:03;88.30;;;42.07;;
43098;SDS011;28715;51.988;6.020;2022-10-15T07:28:29;90.60;;;43.63;;
43098;SDS011;28715;51.988;6.020;2022-10-15T07:30:58;83.13;;;40.77;;
43098;SDS011;28715;51.988;6.020;2022-10-15T07:33:28;93.80;;;41.67;;
43098;SDS011;28715;51.988;6.020;2022-10-15T07:35:54;86.07;;;40.40;;
43098;SDS011;28715;51.988;6.020;2022-10-15T07:38:19;87.20;;;41.00;;
43098;SDS011;28715;51.988;6.020;2022-10-15T07:40:45;79.33;;;39.80;;
43098;SDS011;28715;51.988;6.020;2022-10-15T07:43:11;68.33;;;36.90;;
43098;SDS011;28715;51.988;6.020;2022-10-15T07:45:37;83.00;;;39.17;;
43098;SDS011;28715;51.988;6.020;2022-10-15T07:48:03;72.15;;;37.25;;
43098;SDS011;28715;51.988;6.020;2022-10-15T07:50:29;76.57;;;36.50;;
43098;SDS011;28715;51.988;6.020;2022-10-15T07:52:55;65.33;;;33.60;;
43098;SDS011;28715;51.988;6.020;2022-10-15T07:55:22;61.00;;;32.30;;
43098;SDS011;28715;51.988;6.020;2022-10-15T07:57:48;61.90;;;33.53;;
43098;SDS011;28715;51.988;6.020;2022-10-15T08:00:20;63.70;;;33.57;;
43098;SDS011;28715;51.988;6.020;2022-10-15T08:02:45;66.25;;;34.03;;
43098;SDS011;28715;51.988;6.020;2022-10-15T08:05:11;61.97;;;33.10;;
43098;SDS011;28715;51.988;6.020;2022-10-15T08:07:42;56.23;;;30.93;;
43098;SDS011;28715;51.988;6.020;2022-10-15T08:10:08;46.28;;;28.02;;
43098;SDS011;28715;51.988;6.020;2022-10-15T08:12:37;42.05;;;25.90;;
43098;SDS011;28715;51.988;6.020;2022-10-15T08:15:03;45.28;;;25.25;;
43098;SDS011;28715;51.988;6.020;2022-10-15T08:18:15;36.25;;;22.77;;
43098;SDS011;28715;51.988;6.020;2022-10-15T08:20:47;36.65;;;23.52;;
43098;SDS011;28715;51.988;6.020;2022-10-15T08:23:21;39.78;;;24.70;;
43098;SDS011;28715;51.988;6.020;2022-10-15T08:25:55;37.72;;;24.05;;
43098;SDS011;28715;51.988;6.020;2022-10-15T08:28:34;37.05;;;23.50;;
43098;SDS011;28715;51.988;6.020;2022-10-15T08:31:07;41.90;;;25.55;;
43098;SDS011;28715;51.988;6.020;2022-10-15T08:33:33;40.67;;;25.63;;
43098;SDS011;28715;51.988;6.020;2022-10-15T08:36:02;35.83;;;22.90;;
43098;SDS011;28715;51.988;6.020;2022-10-15T08:38:34;29.73;;;21.03;;
43098;SDS011;28715;51.988;6.020;2022-10-15T08:40:59;26.20;;;19.40;;
43098;SDS011;28715;51.988;6.020;2022-10-15T08:43:41;27.80;;;18.90;;
43098;SDS011;28715;51.988;6.020;2022-10-15T08:46:15;25.87;;;19.03;;
43098;SDS011;28715;51.988;6.020;2022-10-15T08:48:50;23.65;;;17.90;;
43098;SDS011;28715;51.988;6.020;2022-10-15T08:51:19;25.47;;;17.93;;
43098;SDS011;28715;51.988;6.020;2022-10-15T08:53:51;24.00;;;18.40;;
43098;SDS011;28715;51.988;6.020;2022-10-15T08:56:42;26.03;;;18.57;;
43098;SDS011;28715;51.988;6.020;2022-10-15T08:59:28;27.55;;;21.50;;
43098;SDS011;28715;51.988;6.020;2022-10-15T09:08:12;26.37;;;19.87;;
43098;SDS011;28715;51.988;6.020;2022-10-15T09:10:59;28.57;;;21.60;;
43098;SDS011;28715;51.988;6.020;2022-10-15T09:13:36;23.37;;;18.53;;
43098;SDS011;28715;51.988;6.020;2022-10-15T09:18:47;26.60;;;19.03;;
43098;SDS011;28715;51.988;6.020;2022-10-15T09:21:20;25.90;;;19.03;;
43098;SDS011;28715;51.988;6.020;2022-10-15T09:29:45;26.43;;;17.93;;
43098;SDS011;28715;51.988;6.020;2022-10-15T09:32:25;24.97;;;17.10;;
43098;SDS011;28715;51.988;6.020;2022-10-15T09:41:00;21.93;;;14.53;;
43098;SDS011;28715;51.988;6.020;2022-10-15T09:43:33;17.53;;;12.50;;
43098;SDS011;28715;51.988;6.020;2022-10-15T09:46:10;18.70;;;13.57;;
43098;SDS011;28715;51.988;6.020;2022-10-15T09:48:39;20.10;;;13.30;;
43098;SDS011;28715;51.988;6.020;2022-10-15T09:51:50;16.37;;;11.73;;
43098;SDS011;28715;51.988;6.020;2022-10-15T09:54:35;18.83;;;14.10;;
43098;SDS011;28715;51.988;6.020;2022-10-15T09:57:07;19.20;;;12.87;;
43098;SDS011;28715;51.988;6.020;2022-10-15T10:03:41;20.27;;;12.87;;
43098;SDS011;28715;51.988;6.020;2022-10-15T10:09:28;17.23;;;12.13;;
43098;SDS011;28715;51.988;6.020;2022-10-15T10:12:07;17.30;;;12.47;;
43098;SDS011;28715;51.988;6.020;2022-10-15T10:17:52;21.23;;;13.47;;
43098;SDS011;28715;51.988;6.020;2022-10-15T10:20:19;20.63;;;14.70;;
43098;SDS011;28715;51.988;6.020;2022-10-15T10:22:47;23.10;;;16.27;;
43098;SDS011;28715;51.988;6.020;2022-10-15T10:25:34;24.70;;;16.57;;
43098;SDS011;28715;51.988;6.020;2022-10-15T10:28:11;19.90;;;12.67;;
43098;SDS011;28715;51.988;6.020;2022-10-15T10:45:59;22.03;;;14.33;;
43098;SDS011;28715;51.988;6.020;2022-10-15T10:51:33;25.77;;;16.47;;
43098;SDS011;28715;51.988;6.020;2022-10-15T10:54:12;24.55;;;15.50;;
43098;SDS011;28715;51.988;6.020;2022-10-15T10:56:42;26.67;;;17.47;;
43098;SDS011;28715;51.988;6.020;2022-10-15T10:59:17;24.17;;;15.63;;
43098;SDS011;28715;51.988;6.020;2022-10-15T11:01:49;24.67;;;16.60;;
43098;SDS011;28715;51.988;6.020;2022-10-15T11:04:28;25.17;;;15.67;;
43098;SDS011;28715;51.988;6.020;2022-10-15T11:07:09;27.23;;;17.33;;
43098;SDS011;28715;51.988;6.020;2022-10-15T11:15:48;25.07;;;16.03;;
43098;SDS011;28715;51.988;6.020;2022-10-15T11:21:16;24.27;;;15.57;;
43098;SDS011;28715;51.988;6.020;2022-10-15T11:29:33;19.27;;;13.23;;
43098;SDS011;28715;51.988;6.020;2022-10-15T11:37:45;19.17;;;12.33;;
43098;SDS011;28715;51.988;6.020;2022-10-15T11:43:12;15.17;;;10.77;;
43098;SDS011;28715;51.988;6.020;2022-10-15T11:57:30;11.07;;;7.60;;
43098;SDS011;28715;51.988;6.020;2022-10-15T12:02:36;11.53;;;8.00;;
43098;SDS011;28715;51.988;6.020;2022-10-15T12:13:40;10.27;;;7.70;;
43098;SDS011;28715;51.988;6.020;2022-10-15T12:16:21;12.43;;;8.37;;
43098;SDS011;28715;51.988;6.020;2022-10-15T12:18:58;11.93;;;8.33;;
43098;SDS011;28715;51.988;6.020;2022-10-15T12:21:39;10.90;;;8.40;;
43098;SDS011;28715;51.988;6.020;2022-10-15T12:30:25;9.97;;;7.87;;
43098;SDS011;28715;51.988;6.020;2022-10-15T12:33:03;10.97;;;7.93;;
43098;SDS011;28715;51.988;6.020;2022-10-15T12:35:52;8.73;;;7.23;;
43098;SDS011;28715;51.988;6.020;2022-10-15T12:38:38;9.67;;;7.40;;
43098;SDS011;28715;51.988;6.020;2022-10-15T12:41:10;10.33;;;7.80;;
43098;SDS011;28715;51.988;6.020;2022-10-15T12:43:50;11.45;;;8.55;;
43098;SDS011;28715;51.988;6.020;2022-10-15T12:46:34;10.33;;;8.17;;
43098;SDS011;28715;51.988;6.020;2022-10-15T12:49:15;12.20;;;8.20;;
43098;SDS011;28715;51.988;6.020;2022-10-15T12:51:51;10.23;;;7.78;;
43098;SDS011;28715;51.988;6.020;2022-10-15T12:54:37;10.60;;;8.10;;
43098;SDS011;28715;51.988;6.020;2022-10-15T13:02:53;12.70;;;8.23;;
43098;SDS011;28715;51.988;6.020;2022-10-15T13:05:47;10.17;;;7.00;;
43098;SDS011;28715;51.988;6.020;2022-10-15T13:08:41;10.43;;;7.63;;
43098;SDS011;28715;51.988;6.020;2022-10-15T13:17:20;9.70;;;8.57;;
43098;SDS011;28715;51.988;6.020;2022-10-15T13:20:07;11.02;;;8.52;;
43098;SDS011;28715;51.988;6.020;2022-10-15T13:26:49;37.20;;;24.73;;
43098;SDS011;28715;51.988;6.020;2022-10-15T13:36:35;10.53;;;8.17;;
43098;SDS011;28715;51.988;6.020;2022-10-15T13:39:56;15.90;;;13.10;;
43098;SDS011;28715;51.988;6.020;2022-10-15T13:43:12;11.60;;;8.53;;
43098;SDS011;28715;51.988;6.020;2022-10-15T14:01:35;11.20;;;9.20;;
43098;SDS011;28715;51.988;6.020;2022-10-15T14:04:39;9.73;;;8.73;;
43098;SDS011;28715;51.988;6.020;2022-10-15T14:07:33;9.80;;;7.83;;
43098;SDS011;28715;51.988;6.020;2022-10-15T14:10:12;9.33;;;7.43;;
43098;SDS011;28715;51.988;6.020;2022-10-15T14:13:32;8.13;;;6.87;;
43098;SDS011;28715;51.988;6.020;2022-10-15T14:19:45;7.83;;;6.70;;
43098;SDS011;28715;51.988;6.020;2022-10-15T14:22:37;8.13;;;6.93;;
43098;SDS011;28715;51.988;6.020;2022-10-15T14:25:08;8.50;;;6.63;;
43098;SDS011;28715;51.988;6.020;2022-10-15T14:27:38;8.95;;;7.00;;
43098;SDS011;28715;51.988;6.020;2022-10-15T14:33:53;7.33;;;6.17;;
43098;SDS011;28715;51.988;6.020;2022-10-15T14:40:00;7.77;;;6.37;;
43098;SDS011;28715;51.988;6.020;2022-10-15T14:46:16;11.87;;;8.93;;
43098;SDS011;28715;51.988;6.020;2022-10-15T14:49:05;7.85;;;6.03;;
43098;SDS011;28715;51.988;6.020;2022-10-15T14:52:10;7.17;;;5.10;;
43098;SDS011;28715;51.988;6.020;2022-10-15T14:54:46;7.03;;;5.70;;
43098;SDS011;28715;51.988;6.020;2022-10-15T15:00:55;7.30;;;5.20;;
43098;SDS011;28715;51.988;6.020;2022-10-15T15:03:37;8.20;;;5.90;;
43098;SDS011;28715;51.988;6.020;2022-10-15T15:06:35;6.63;;;5.33;;
43098;SDS011;28715;51.988;6.020;2022-10-15T15:09:21;7.33;;;5.43;;
43098;SDS011;28715;51.988;6.020;2022-10-15T15:18:50;9.88;;;7.30;;
43098;SDS011;28715;51.988;6.020;2022-10-15T15:21:55;8.03;;;5.90;;
43098;SDS011;28715;51.988;6.020;2022-10-15T15:45:19;8.73;;;4.10;;
43098;SDS011;28715;51.988;6.020;2022-10-15T17:15:50;6.13;;;2.13;;
43098;SDS011;28715;51.988;6.020;2022-10-15T20:26:38;39.92;;;18.05;;
43098;SDS011;28715;51.988;6.020;2022-10-15T21:40:38;32.17;;;19.87;;
43098;SDS011;28715;51.988;6.020;2022-10-15T22:59:13;11.10;;;3.60;;
